Avis, PA

10:58 PM EDT on October 22, 2014 (GMT -0400)
297 McElhattan Drive | Change Station
CLOSE
Current Station
Personal Weather Station
Location: McElhattan, PA
Elevation: 568 ft
Nearby Weather Stations

Elev 568 ft 41.16 °N, 77.36 °W | Updated 7 minutes ago

Overcast
Overcast
49.8 °F
Feels Like 50 °F
N
0.0
Wind Variable Wind from WSW
Gusts 6.0 mph

Today
High -- | Low -- °F
--% Chance of Precip.
Yesterday
High -- | Low -- °F
Precip. -- in
7:28 AM 6:18 PM
Waning Crescent, 1% visible
Pressure 30.01 in
Visibility 10.0 miles
Clouds Overcast 2200 ft
Windchill 50 °F
Dew Point 43 °F
Humidity 78%
Rainfall 0.02 in
Snow Depth Not available.
UV 0.0 out of 12
Pollen .30 out of 12
Air Quality Not available.
Flu Activity Sporadic
METAR KIPT 230254Z AUTO 30008G15KT 270V350 10SM OVC022 11/06 A3000 RMK AO2 SLP161 T01060056 58008

More Conditions Fewer Conditions

Pressure 30.01 in
Visibility 10.0 miles
Clouds Overcast 2200 ft
Windchill 50 °F
Dew Point 43 °F
Humidity 78%
Rainfall 0.02 in
Snow Depth Not available.
UV 0.0 out of 12
Pollen .30 out of 12
Air Quality Not available.
Flu Activity Sporadic
METAR KIPT 230254Z AUTO 30008G15KT 270V350 10SM OVC022 11/06 A3000 RMK AO2 SLP161 T01060056 58008

More Conditions Fewer Conditions

10-Day Weather Forecast

Almanac

Astronomy

Oct. 22, 2014 Rise Set
Actual Time 7:28 AM EDT 6:18 PM EDT
Civil Twilight 7:00 AM EDT 6:46 PM EDT
Nautical Twilight 6:28 AM EDT 7:18 PM EDT
Astronomical Twilight 5:56 AM EDT 7:50 PM EDT
Moon 6:07 AM EDT (10/22) 5:44 PM EDT (10/22)
Length of Visible Light 11h 45m
Length of Day
10h 49m
Tomorrow will be 2m 34s shorter.
Waning Crescent, 1% of the Moon is Illuminated
Today
Waning Crescent
Oct 23
New
Oct 30
First Quarter
Nov 6
Full
Nov 14
Last Quarter

Today's Extremes

State Highs State Lows

Community

WunderPhotos

Upload Photos

1,764,115 photos uploaded!

Nearby

Snow Depth

Station Depth Elevation
No new snow has been reported.

Earthquake Activity

City Distance Mag. Time & Date
No recent earthquake activity has been reported nearby.
Minimum magnitude displayed is 2.5.

Coastal Water Temperatures

Place Temperature
No Stations Reporting

Nearby Weather Stations